Terminal Aerodrome Forecast
Issued by NWS

Home | Current Version | Previous Version | Text Only | Print | Product List | Glossary On
Versions: 1 2 3 4 5 6 7 8 9 10 11 12 13 14 15 16
523
FTUS45 KFGZ 262326
TAFPGA
TAF
KPGA 262326Z 2700/2724 VRB20G30KT P6SM VCTS SCT120CB BKN200
     FM270400 VRB05KT P6SM SCT130 BKN200=

USA.gov is the U.S. government's official web portal to all federal, state and local government web resources and services.